Terminal Aerodrome Forecast
Issued by NWS

Home | Current Version | Previous Version | Text Only | Print | Product List | Glossary On
Versions: 1 2 3 4 5 6 7 8 9 10 11 12
985
FTUS42 KTAE 111733
TAFDHN
TAF
KDHN 111733Z 1118/1218 25010G18KT P6SM SKC
     FM120000 22005KT P6SM SCT025
     FM120900 23004KT 4SM BR SCT015
     FM121500 27012G18KT P6SM SCT250=

USA.gov is the U.S. government's official web portal to all federal, state and local government web resources and services.